sensor_id;sensor_type;location;lat;lon;timestamp;P1;durP1;ratioP1;P2;durP2;ratioP2
62610;SDS011;48683;48.084;17.272;2023-04-12T00:00:29;4.80;;;1.80;;
62610;SDS011;48683;48.084;17.272;2023-04-12T00:02:55;2.92;;;1.80;;
62610;SDS011;48683;48.084;17.272;2023-04-12T00:05:23;3.17;;;1.65;;
62610;SDS011;48683;48.084;17.272;2023-04-12T00:07:51;4.53;;;1.67;;
62610;SDS011;48683;48.084;17.272;2023-04-12T00:10:17;3.92;;;1.30;;
62610;SDS011;48683;48.084;17.272;2023-04-12T00:12:43;3.15;;;1.45;;
62610;SDS011;48683;48.084;17.272;2023-04-12T00:15:09;3.55;;;1.40;;
62610;SDS011;48683;48.084;17.272;2023-04-12T00:17:34;2.30;;;1.60;;
62610;SDS011;48683;48.084;17.272;2023-04-12T00:20:00;1.65;;;1.42;;
62610;SDS011;48683;48.084;17.272;2023-04-12T00:22:29;3.83;;;2.08;;
62610;SDS011;48683;48.084;17.272;2023-04-12T00:24:54;2.63;;;1.65;;
62610;SDS011;48683;48.084;17.272;2023-04-12T00:27:20;2.30;;;1.67;;
62610;SDS011;48683;48.084;17.272;2023-04-12T00:29:45;5.60;;;2.08;;
62610;SDS011;48683;48.084;17.272;2023-04-12T00:32:11;4.00;;;1.48;;
62610;SDS011;48683;48.084;17.272;2023-04-12T00:34:36;3.00;;;1.52;;
62610;SDS011;48683;48.084;17.272;2023-04-12T00:37:01;3.20;;;1.73;;
62610;SDS011;48683;48.084;17.272;2023-04-12T00:39:27;3.55;;;1.60;;
62610;SDS011;48683;48.084;17.272;2023-04-12T00:41:53;2.67;;;1.80;;
62610;SDS011;48683;48.084;17.272;2023-04-12T00:44:19;1.88;;;1.63;;
62610;SDS011;48683;48.084;17.272;2023-04-12T00:46:45;2.03;;;1.70;;
62610;SDS011;48683;48.084;17.272;2023-04-12T00:49:12;6.68;;;1.95;;
62610;SDS011;48683;48.084;17.272;2023-04-12T00:51:38;3.03;;;1.75;;
62610;SDS011;48683;48.084;17.272;2023-04-12T00:54:04;3.08;;;1.70;;
62610;SDS011;48683;48.084;17.272;2023-04-12T00:56:30;2.78;;;1.63;;
62610;SDS011;48683;48.084;17.272;2023-04-12T00:58:56;2.72;;;1.80;;
62610;SDS011;48683;48.084;17.272;2023-04-12T01:01:22;3.35;;;1.90;;
62610;SDS011;48683;48.084;17.272;2023-04-12T01:03:51;5.25;;;1.98;;
62610;SDS011;48683;48.084;17.272;2023-04-12T01:11:31;3.22;;;2.05;;
62610;SDS011;48683;48.084;17.272;2023-04-12T01:14:10;4.45;;;1.90;;
62610;SDS011;48683;48.084;17.272;2023-04-12T01:27:53;5.07;;;1.50;;
62610;SDS011;48683;48.084;17.272;2023-04-12T01:30:21;2.72;;;1.90;;
62610;SDS011;48683;48.084;17.272;2023-04-12T01:32:50;4.35;;;1.80;;
62610;SDS011;48683;48.084;17.272;2023-04-12T01:35:19;2.50;;;1.60;;
62610;SDS011;48683;48.084;17.272;2023-04-12T01:37:46;3.25;;;1.48;;
62610;SDS011;48683;48.084;17.272;2023-04-12T01:40:12;2.08;;;1.60;;
62610;SDS011;48683;48.084;17.272;2023-04-12T01:42:38;3.58;;;1.70;;
62610;SDS011;48683;48.084;17.272;2023-04-12T01:45:06;2.72;;;1.65;;
62610;SDS011;48683;48.084;17.272;2023-04-12T01:47:32;4.80;;;1.60;;
62610;SDS011;48683;48.084;17.272;2023-04-12T01:50:01;5.72;;;1.50;;
62610;SDS011;48683;48.084;17.272;2023-04-12T01:52:51;1.95;;;1.60;;
62610;SDS011;48683;48.084;17.272;2023-04-12T01:55:21;2.58;;;1.40;;
62610;SDS011;48683;48.084;17.272;2023-04-12T01:57:48;3.58;;;1.42;;
62610;SDS011;48683;48.084;17.272;2023-04-12T02:00:14;2.42;;;1.60;;
62610;SDS011;48683;48.084;17.272;2023-04-12T02:02:42;1.83;;;1.35;;
62610;SDS011;48683;48.084;17.272;2023-04-12T02:05:08;3.42;;;1.55;;
62610;SDS011;48683;48.084;17.272;2023-04-12T02:07:34;3.38;;;1.77;;
62610;SDS011;48683;48.084;17.272;2023-04-12T02:10:01;2.57;;;1.40;;
62610;SDS011;48683;48.084;17.272;2023-04-12T02:12:26;4.80;;;2.00;;
62610;SDS011;48683;48.084;17.272;2023-04-12T02:14:52;2.72;;;1.80;;
62610;SDS011;48683;48.084;17.272;2023-04-12T02:17:17;3.25;;;1.60;;
62610;SDS011;48683;48.084;17.272;2023-04-12T02:19:43;2.15;;;1.55;;
62610;SDS011;48683;48.084;17.272;2023-04-12T02:22:09;2.25;;;1.40;;
62610;SDS011;48683;48.084;17.272;2023-04-12T02:24:35;2.90;;;1.88;;
62610;SDS011;48683;48.084;17.272;2023-04-12T02:27:00;2.72;;;1.60;;
62610;SDS011;48683;48.084;17.272;2023-04-12T02:29:25;4.10;;;1.73;;
62610;SDS011;48683;48.084;17.272;2023-04-12T02:31:51;3.47;;;1.90;;
62610;SDS011;48683;48.084;17.272;2023-04-12T02:34:17;3.72;;;1.80;;
62610;SDS011;48683;48.084;17.272;2023-04-12T02:36:46;2.92;;;1.67;;
62610;SDS011;48683;48.084;17.272;2023-04-12T02:39:12;2.88;;;1.30;;
62610;SDS011;48683;48.084;17.272;2023-04-12T02:41:37;1.50;;;1.40;;
62610;SDS011;48683;48.084;17.272;2023-04-12T02:44:03;3.30;;;1.65;;
62610;SDS011;48683;48.084;17.272;2023-04-12T02:46:28;2.78;;;1.48;;
62610;SDS011;48683;48.084;17.272;2023-04-12T02:48:54;2.10;;;1.40;;
62610;SDS011;48683;48.084;17.272;2023-04-12T02:51:19;3.05;;;1.70;;
62610;SDS011;48683;48.084;17.272;2023-04-12T02:53:44;2.03;;;1.55;;
62610;SDS011;48683;48.084;17.272;2023-04-12T02:56:10;2.30;;;1.80;;
62610;SDS011;48683;48.084;17.272;2023-04-12T02:58:37;2.70;;;1.95;;
62610;SDS011;48683;48.084;17.272;2023-04-12T03:01:02;2.45;;;1.73;;
62610;SDS011;48683;48.084;17.272;2023-04-12T03:03:32;3.13;;;1.58;;
62610;SDS011;48683;48.084;17.272;2023-04-12T03:05:58;2.33;;;1.67;;
62610;SDS011;48683;48.084;17.272;2023-04-12T03:08:24;3.80;;;1.90;;
62610;SDS011;48683;48.084;17.272;2023-04-12T03:10:49;2.78;;;2.05;;
62610;SDS011;48683;48.084;17.272;2023-04-12T03:13:15;4.13;;;2.08;;
62610;SDS011;48683;48.084;17.272;2023-04-12T03:15:40;2.08;;;1.70;;
62610;SDS011;48683;48.084;17.272;2023-04-12T03:18:07;5.85;;;2.03;;
62610;SDS011;48683;48.084;17.272;2023-04-12T03:20:33;4.57;;;2.10;;
62610;SDS011;48683;48.084;17.272;2023-04-12T03:22:59;3.47;;;2.22;;
62610;SDS011;48683;48.084;17.272;2023-04-12T03:25:24;2.65;;;1.75;;
62610;SDS011;48683;48.084;17.272;2023-04-12T03:27:49;4.68;;;2.22;;
62610;SDS011;48683;48.084;17.272;2023-04-12T03:30:15;2.40;;;1.88;;
62610;SDS011;48683;48.084;17.272;2023-04-12T03:32:41;2.00;;;1.70;;
62610;SDS011;48683;48.084;17.272;2023-04-12T03:35:07;3.65;;;2.15;;
62610;SDS011;48683;48.084;17.272;2023-04-12T03:37:33;5.28;;;2.00;;
62610;SDS011;48683;48.084;17.272;2023-04-12T03:39:59;3.85;;;2.40;;
62610;SDS011;48683;48.084;17.272;2023-04-12T03:42:24;2.20;;;1.95;;
62610;SDS011;48683;48.084;17.272;2023-04-12T03:44:51;4.28;;;2.40;;
62610;SDS011;48683;48.084;17.272;2023-04-12T03:47:16;4.57;;;2.30;;
62610;SDS011;48683;48.084;17.272;2023-04-12T03:49:43;3.72;;;2.00;;
62610;SDS011;48683;48.084;17.272;2023-04-12T03:52:08;4.15;;;2.35;;
62610;SDS011;48683;48.084;17.272;2023-04-12T03:54:34;3.95;;;2.22;;
62610;SDS011;48683;48.084;17.272;2023-04-12T03:56:59;4.63;;;2.35;;
62610;SDS011;48683;48.084;17.272;2023-04-12T03:59:26;3.57;;;2.73;;
62610;SDS011;48683;48.084;17.272;2023-04-12T04:01:52;4.03;;;2.42;;
62610;SDS011;48683;48.084;17.272;2023-04-12T04:04:17;4.05;;;2.28;;
62610;SDS011;48683;48.084;17.272;2023-04-12T04:06:42;5.30;;;2.60;;
62610;SDS011;48683;48.084;17.272;2023-04-12T04:09:08;4.57;;;2.35;;
62610;SDS011;48683;48.084;17.272;2023-04-12T04:11:33;6.95;;;2.55;;
62610;SDS011;48683;48.084;17.272;2023-04-12T04:13:59;4.00;;;2.35;;
62610;SDS011;48683;48.084;17.272;2023-04-12T04:16:24;3.33;;;2.58;;
62610;SDS011;48683;48.084;17.272;2023-04-12T04:18:50;4.32;;;3.25;;
62610;SDS011;48683;48.084;17.272;2023-04-12T04:21:15;5.00;;;2.75;;
62610;SDS011;48683;48.084;17.272;2023-04-12T04:23:40;4.45;;;2.80;;
62610;SDS011;48683;48.084;17.272;2023-04-12T04:26:09;3.22;;;2.40;;
62610;SDS011;48683;48.084;17.272;2023-04-12T04:28:35;3.17;;;2.70;;
62610;SDS011;48683;48.084;17.272;2023-04-12T04:31:06;3.78;;;2.53;;
62610;SDS011;48683;48.084;17.272;2023-04-12T04:33:34;8.13;;;3.08;;
62610;SDS011;48683;48.084;17.272;2023-04-12T04:36:00;5.07;;;3.20;;
62610;SDS011;48683;48.084;17.272;2023-04-12T04:38:28;6.40;;;2.50;;
62610;SDS011;48683;48.084;17.272;2023-04-12T04:40:53;5.20;;;3.33;;
62610;SDS011;48683;48.084;17.272;2023-04-12T04:43:19;4.78;;;3.20;;
62610;SDS011;48683;48.084;17.272;2023-04-12T04:45:46;5.00;;;3.50;;
62610;SDS011;48683;48.084;17.272;2023-04-12T04:48:14;4.72;;;3.55;;
62610;SDS011;48683;48.084;17.272;2023-04-12T04:50:40;6.15;;;4.57;;
62610;SDS011;48683;48.084;17.272;2023-04-12T04:53:05;5.00;;;3.70;;
62610;SDS011;48683;48.084;17.272;2023-04-12T04:55:31;5.07;;;4.13;;
62610;SDS011;48683;48.084;17.272;2023-04-12T04:57:56;5.22;;;3.25;;
62610;SDS011;48683;48.084;17.272;2023-04-12T05:00:22;5.93;;;3.72;;
62610;SDS011;48683;48.084;17.272;2023-04-12T05:02:49;4.97;;;3.13;;
62610;SDS011;48683;48.084;17.272;2023-04-12T05:05:15;5.57;;;2.80;;
62610;SDS011;48683;48.084;17.272;2023-04-12T05:07:41;3.55;;;2.53;;
62610;SDS011;48683;48.084;17.272;2023-04-12T05:10:09;3.88;;;2.58;;
62610;SDS011;48683;48.084;17.272;2023-04-12T05:12:35;4.85;;;2.40;;
62610;SDS011;48683;48.084;17.272;2023-04-12T05:15:01;6.03;;;2.70;;
62610;SDS011;48683;48.084;17.272;2023-04-12T05:17:27;3.47;;;2.60;;
62610;SDS011;48683;48.084;17.272;2023-04-12T05:19:52;3.75;;;2.67;;
62610;SDS011;48683;48.084;17.272;2023-04-12T05:22:18;3.20;;;2.60;;
62610;SDS011;48683;48.084;17.272;2023-04-12T05:24:47;2.42;;;2.20;;
62610;SDS011;48683;48.084;17.272;2023-04-12T05:27:13;8.02;;;3.10;;
62610;SDS011;48683;48.084;17.272;2023-04-12T05:29:40;6.93;;;2.92;;
62610;SDS011;48683;48.084;17.272;2023-04-12T05:32:06;4.50;;;2.77;;
62610;SDS011;48683;48.084;17.272;2023-04-12T05:34:32;4.60;;;2.50;;
62610;SDS011;48683;48.084;17.272;2023-04-12T05:36:57;4.18;;;2.53;;
62610;SDS011;48683;48.084;17.272;2023-04-12T05:39:23;6.27;;;2.90;;
62610;SDS011;48683;48.084;17.272;2023-04-12T05:41:49;4.10;;;2.78;;
62610;SDS011;48683;48.084;17.272;2023-04-12T05:44:15;6.40;;;2.65;;
62610;SDS011;48683;48.084;17.272;2023-04-12T05:46:40;7.40;;;2.60;;
62610;SDS011;48683;48.084;17.272;2023-04-12T05:49:06;5.97;;;2.75;;
62610;SDS011;48683;48.084;17.272;2023-04-12T05:51:31;3.65;;;3.05;;
62610;SDS011;48683;48.084;17.272;2023-04-12T05:53:57;6.07;;;3.10;;
62610;SDS011;48683;48.084;17.272;2023-04-12T05:56:22;4.25;;;2.97;;
62610;SDS011;48683;48.084;17.272;2023-04-12T05:58:47;5.43;;;2.70;;
62610;SDS011;48683;48.084;17.272;2023-04-12T06:01:13;3.78;;;2.63;;
62610;SDS011;48683;48.084;17.272;2023-04-12T06:03:40;4.90;;;2.80;;
62610;SDS011;48683;48.084;17.272;2023-04-12T06:06:07;3.60;;;2.55;;
62610;SDS011;48683;48.084;17.272;2023-04-12T06:08:33;4.18;;;2.95;;
62610;SDS011;48683;48.084;17.272;2023-04-12T06:11:00;5.37;;;2.73;;
62610;SDS011;48683;48.084;17.272;2023-04-12T06:13:25;5.18;;;2.60;;
62610;SDS011;48683;48.084;17.272;2023-04-12T06:15:51;10.27;;;3.00;;
62610;SDS011;48683;48.084;17.272;2023-04-12T06:18:16;4.13;;;2.85;;
62610;SDS011;48683;48.084;17.272;2023-04-12T06:20:42;6.38;;;3.15;;
62610;SDS011;48683;48.084;17.272;2023-04-12T06:23:07;4.53;;;2.53;;
62610;SDS011;48683;48.084;17.272;2023-04-12T06:25:33;5.13;;;2.67;;
62610;SDS011;48683;48.084;17.272;2023-04-12T06:27:58;4.55;;;2.75;;
62610;SDS011;48683;48.084;17.272;2023-04-12T06:30:23;4.65;;;2.70;;
62610;SDS011;48683;48.084;17.272;2023-04-12T06:32:49;5.45;;;3.05;;
62610;SDS011;48683;48.084;17.272;2023-04-12T06:35:14;4.03;;;2.80;;
62610;SDS011;48683;48.084;17.272;2023-04-12T06:37:40;5.63;;;2.75;;
62610;SDS011;48683;48.084;17.272;2023-04-12T06:40:06;3.60;;;2.72;;
62610;SDS011;48683;48.084;17.272;2023-04-12T06:42:32;4.50;;;3.10;;
62610;SDS011;48683;48.084;17.272;2023-04-12T06:44:58;8.60;;;3.40;;
62610;SDS011;48683;48.084;17.272;2023-04-12T06:47:23;6.38;;;3.00;;
62610;SDS011;48683;48.084;17.272;2023-04-12T06:49:49;4.70;;;3.08;;
62610;SDS011;48683;48.084;17.272;2023-04-12T06:52:17;3.28;;;2.70;;
62610;SDS011;48683;48.084;17.272;2023-04-12T06:54:42;6.30;;;2.90;;
62610;SDS011;48683;48.084;17.272;2023-04-12T06:57:08;4.20;;;2.70;;
62610;SDS011;48683;48.084;17.272;2023-04-12T07:02:00;3.87;;;2.67;;
62610;SDS011;48683;48.084;17.272;2023-04-12T07:04:25;5.72;;;2.90;;
62610;SDS011;48683;48.084;17.272;2023-04-12T07:06:51;4.15;;;2.75;;
62610;SDS011;48683;48.084;17.272;2023-04-12T07:09:16;3.60;;;2.40;;
62610;SDS011;48683;48.084;17.272;2023-04-12T07:11:41;4.80;;;2.70;;
62610;SDS011;48683;48.084;17.272;2023-04-12T07:14:07;2.85;;;2.60;;
62610;SDS011;48683;48.084;17.272;2023-04-12T07:16:32;4.60;;;2.67;;
62610;SDS011;48683;48.084;17.272;2023-04-12T07:18:58;8.50;;;2.85;;
62610;SDS011;48683;48.084;17.272;2023-04-12T07:21:24;5.32;;;2.90;;
62610;SDS011;48683;48.084;17.272;2023-04-12T07:23:49;6.05;;;3.00;;
62610;SDS011;48683;48.084;17.272;2023-04-12T07:26:15;6.60;;;3.17;;
62610;SDS011;48683;48.084;17.272;2023-04-12T07:28:42;4.57;;;3.42;;
62610;SDS011;48683;48.084;17.272;2023-04-12T07:31:07;5.90;;;3.08;;
62610;SDS011;48683;48.084;17.272;2023-04-12T07:33:33;6.03;;;3.08;;
62610;SDS011;48683;48.084;17.272;2023-04-12T07:36:00;7.57;;;3.53;;
62610;SDS011;48683;48.084;17.272;2023-04-12T07:38:25;5.25;;;3.40;;
62610;SDS011;48683;48.084;17.272;2023-04-12T07:40:51;4.82;;;3.33;;
62610;SDS011;48683;48.084;17.272;2023-04-12T07:43:18;5.15;;;3.10;;
62610;SDS011;48683;48.084;17.272;2023-04-12T07:45:43;4.35;;;2.95;;
62610;SDS011;48683;48.084;17.272;2023-04-12T07:48:08;5.55;;;3.35;;
62610;SDS011;48683;48.084;17.272;2023-04-12T07:50:35;6.95;;;3.13;;
62610;SDS011;48683;48.084;17.272;2023-04-12T07:53:21;8.07;;;3.47;;
62610;SDS011;48683;48.084;17.272;2023-04-12T07:55:48;7.53;;;3.60;;
62610;SDS011;48683;48.084;17.272;2023-04-12T07:58:15;5.55;;;3.42;;
62610;SDS011;48683;48.084;17.272;2023-04-12T08:00:41;7.38;;;3.10;;
62610;SDS011;48683;48.084;17.272;2023-04-12T08:03:07;5.60;;;3.20;;
62610;SDS011;48683;48.084;17.272;2023-04-12T08:05:32;6.78;;;3.45;;
62610;SDS011;48683;48.084;17.272;2023-04-12T08:07:58;6.90;;;3.22;;
62610;SDS011;48683;48.084;17.272;2023-04-12T08:10:23;4.40;;;2.90;;
62610;SDS011;48683;48.084;17.272;2023-04-12T08:12:49;4.10;;;2.92;;
62610;SDS011;48683;48.084;17.272;2023-04-12T08:15:14;7.43;;;3.55;;
62610;SDS011;48683;48.084;17.272;2023-04-12T08:17:40;6.53;;;3.53;;
62610;SDS011;48683;48.084;17.272;2023-04-12T08:20:07;4.95;;;3.15;;
62610;SDS011;48683;48.084;17.272;2023-04-12T08:22:33;4.53;;;2.85;;
62610;SDS011;48683;48.084;17.272;2023-04-12T08:24:59;5.25;;;2.97;;
62610;SDS011;48683;48.084;17.272;2023-04-12T08:27:25;4.78;;;2.75;;
62610;SDS011;48683;48.084;17.272;2023-04-12T08:29:51;3.78;;;3.03;;
62610;SDS011;48683;48.084;17.272;2023-04-12T08:32:16;5.03;;;2.70;;
62610;SDS011;48683;48.084;17.272;2023-04-12T08:34:41;5.13;;;2.72;;
62610;SDS011;48683;48.084;17.272;2023-04-12T08:37:07;4.90;;;2.60;;
62610;SDS011;48683;48.084;17.272;2023-04-12T08:39:32;11.57;;;3.38;;
62610;SDS011;48683;48.084;17.272;2023-04-12T08:41:59;5.20;;;2.50;;
62610;SDS011;48683;48.084;17.272;2023-04-12T08:44:34;3.80;;;2.40;;
62610;SDS011;48683;48.084;17.272;2023-04-12T08:47:04;4.95;;;2.30;;
62610;SDS011;48683;48.084;17.272;2023-04-12T08:49:31;5.60;;;2.33;;
62610;SDS011;48683;48.084;17.272;2023-04-12T08:54:29;4.63;;;1.90;;
62610;SDS011;48683;48.084;17.272;2023-04-12T08:56:55;5.07;;;2.50;;
62610;SDS011;48683;48.084;17.272;2023-04-12T08:59:24;5.38;;;2.35;;
62610;SDS011;48683;48.084;17.272;2023-04-12T09:01:51;6.60;;;2.60;;
62610;SDS011;48683;48.084;17.272;2023-04-12T09:06:43;4.90;;;2.13;;
62610;SDS011;48683;48.084;17.272;2023-04-12T09:09:08;5.72;;;2.22;;
62610;SDS011;48683;48.084;17.272;2023-04-12T09:11:35;4.75;;;2.20;;
62610;SDS011;48683;48.084;17.272;2023-04-12T09:14:00;5.75;;;2.42;;
62610;SDS011;48683;48.084;17.272;2023-04-12T09:19:04;3.20;;;1.95;;
62610;SDS011;48683;48.084;17.272;2023-04-12T09:21:31;5.23;;;2.20;;
62610;SDS011;48683;48.084;17.272;2023-04-12T09:24:02;5.55;;;1.77;;
62610;SDS011;48683;48.084;17.272;2023-04-12T09:26:33;5.03;;;1.80;;
62610;SDS011;48683;48.084;17.272;2023-04-12T09:28:58;4.55;;;2.15;;
62610;SDS011;48683;48.084;17.272;2023-04-12T09:31:24;3.90;;;1.90;;
62610;SDS011;48683;48.084;17.272;2023-04-12T09:33:50;5.45;;;2.20;;
62610;SDS011;48683;48.084;17.272;2023-04-12T09:36:16;3.38;;;1.98;;
62610;SDS011;48683;48.084;17.272;2023-04-12T09:38:58;6.00;;;2.20;;
62610;SDS011;48683;48.084;17.272;2023-04-12T09:41:25;3.97;;;1.50;;
62610;SDS011;48683;48.084;17.272;2023-04-12T09:43:52;5.18;;;1.60;;
62610;SDS011;48683;48.084;17.272;2023-04-12T09:46:18;4.10;;;1.63;;
62610;SDS011;48683;48.084;17.272;2023-04-12T09:48:53;4.97;;;1.90;;
62610;SDS011;48683;48.084;17.272;2023-04-12T09:51:26;3.58;;;1.50;;
62610;SDS011;48683;48.084;17.272;2023-04-12T09:53:59;5.18;;;1.80;;
62610;SDS011;48683;48.084;17.272;2023-04-12T09:56:31;3.80;;;1.58;;
62610;SDS011;48683;48.084;17.272;2023-04-12T09:59:00;3.40;;;1.70;;
62610;SDS011;48683;48.084;17.272;2023-04-12T10:01:28;4.68;;;1.50;;
62610;SDS011;48683;48.084;17.272;2023-04-12T10:03:56;4.25;;;1.50;;
62610;SDS011;48683;48.084;17.272;2023-04-12T10:06:23;4.13;;;1.88;;
62610;SDS011;48683;48.084;17.272;2023-04-12T10:08:48;3.22;;;1.80;;
62610;SDS011;48683;48.084;17.272;2023-04-12T10:11:14;2.80;;;1.75;;
62610;SDS011;48683;48.084;17.272;2023-04-12T10:13:39;3.80;;;1.75;;
62610;SDS011;48683;48.084;17.272;2023-04-12T10:16:07;3.67;;;1.70;;
62610;SDS011;48683;48.084;17.272;2023-04-12T10:18:34;4.82;;;1.83;;
62610;SDS011;48683;48.084;17.272;2023-04-12T10:21:03;3.53;;;1.48;;
62610;SDS011;48683;48.084;17.272;2023-04-12T10:23:32;3.97;;;1.77;;
62610;SDS011;48683;48.084;17.272;2023-04-12T10:25:57;3.53;;;1.50;;
62610;SDS011;48683;48.084;17.272;2023-04-12T10:28:26;2.90;;;1.45;;
62610;SDS011;48683;48.084;17.272;2023-04-12T10:30:51;3.88;;;2.10;;
62610;SDS011;48683;48.084;17.272;2023-04-12T10:33:28;2.40;;;1.65;;
62610;SDS011;48683;48.084;17.272;2023-04-12T10:35:59;4.10;;;1.77;;
62610;SDS011;48683;48.084;17.272;2023-04-12T10:38:28;4.93;;;1.83;;
62610;SDS011;48683;48.084;17.272;2023-04-12T10:43:30;4.57;;;1.50;;
62610;SDS011;48683;48.084;17.272;2023-04-12T10:45:56;4.63;;;1.77;;
62610;SDS011;48683;48.084;17.272;2023-04-12T10:48:38;5.55;;;1.80;;
62610;SDS011;48683;48.084;17.272;2023-04-12T10:51:22;3.15;;;1.73;;
62610;SDS011;48683;48.084;17.272;2023-04-12T10:53:53;4.38;;;1.77;;
62610;SDS011;48683;48.084;17.272;2023-04-12T10:59:07;4.60;;;1.63;;
62610;SDS011;48683;48.084;17.272;2023-04-12T11:01:34;3.70;;;1.73;;
62610;SDS011;48683;48.084;17.272;2023-04-12T11:04:16;3.88;;;1.50;;
62610;SDS011;48683;48.084;17.272;2023-04-12T11:09:21;4.35;;;1.83;;
62610;SDS011;48683;48.084;17.272;2023-04-12T11:14:29;2.42;;;1.52;;
62610;SDS011;48683;48.084;17.272;2023-04-12T11:19:35;2.50;;;1.95;;
62610;SDS011;48683;48.084;17.272;2023-04-12T11:22:03;2.17;;;1.70;;
62610;SDS011;48683;48.084;17.272;2023-04-12T11:24:29;5.07;;;1.90;;
62610;SDS011;48683;48.084;17.272;2023-04-12T11:26:55;2.53;;;1.80;;
62610;SDS011;48683;48.084;17.272;2023-04-12T11:29:24;4.15;;;1.92;;
62610;SDS011;48683;48.084;17.272;2023-04-12T11:31:50;4.03;;;2.00;;
62610;SDS011;48683;48.084;17.272;2023-04-12T11:34:16;5.03;;;2.20;;
62610;SDS011;48683;48.084;17.272;2023-04-12T11:36:43;3.65;;;1.67;;
62610;SDS011;48683;48.084;17.272;2023-04-12T11:39:09;5.40;;;2.00;;
62610;SDS011;48683;48.084;17.272;2023-04-12T11:41:35;4.93;;;1.90;;
62610;SDS011;48683;48.084;17.272;2023-04-12T11:44:01;3.23;;;1.83;;
62610;SDS011;48683;48.084;17.272;2023-04-12T11:46:32;4.13;;;1.70;;
62610;SDS011;48683;48.084;17.272;2023-04-12T11:48:57;4.38;;;1.75;;
62610;SDS011;48683;48.084;17.272;2023-04-12T11:51:23;2.60;;;1.50;;
62610;SDS011;48683;48.084;17.272;2023-04-12T11:53:52;5.40;;;2.10;;
62610;SDS011;48683;48.084;17.272;2023-04-12T11:56:18;2.78;;;1.88;;
62610;SDS011;48683;48.084;17.272;2023-04-12T11:58:47;3.53;;;2.00;;
62610;SDS011;48683;48.084;17.272;2023-04-12T12:01:13;5.03;;;2.20;;
62610;SDS011;48683;48.084;17.272;2023-04-12T12:03:39;3.65;;;1.75;;
62610;SDS011;48683;48.084;17.272;2023-04-12T12:06:06;2.47;;;1.60;;
62610;SDS011;48683;48.084;17.272;2023-04-12T12:08:32;5.50;;;1.92;;
62610;SDS011;48683;48.084;17.272;2023-04-12T12:10:58;3.90;;;2.13;;
62610;SDS011;48683;48.084;17.272;2023-04-12T12:13:23;3.50;;;2.35;;
62610;SDS011;48683;48.084;17.272;2023-04-12T12:15:52;5.30;;;2.20;;
62610;SDS011;48683;48.084;17.272;2023-04-12T12:18:17;3.63;;;1.85;;
62610;SDS011;48683;48.084;17.272;2023-04-12T12:20:49;6.60;;;2.20;;
62610;SDS011;48683;48.084;17.272;2023-04-12T12:23:28;3.08;;;1.80;;
62610;SDS011;48683;48.084;17.272;2023-04-12T12:25:57;3.88;;;2.00;;
62610;SDS011;48683;48.084;17.272;2023-04-12T12:28:24;3.70;;;1.80;;
62610;SDS011;48683;48.084;17.272;2023-04-12T12:31:31;3.50;;;2.17;;
62610;SDS011;48683;48.084;17.272;2023-04-12T12:33:42;3.10;;;1.52;;
62610;SDS011;48683;48.084;17.272;2023-04-12T12:36:08;3.13;;;2.10;;
62610;SDS011;48683;48.084;17.272;2023-04-12T12:38:37;3.20;;;1.60;;
62610;SDS011;48683;48.084;17.272;2023-04-12T12:43:45;4.15;;;2.38;;
62610;SDS011;48683;48.084;17.272;2023-04-12T12:46:11;3.72;;;1.85;;
62610;SDS011;48683;48.084;17.272;2023-04-12T12:48:40;2.30;;;1.63;;
62610;SDS011;48683;48.084;17.272;2023-04-12T12:51:09;4.78;;;1.80;;
62610;SDS011;48683;48.084;17.272;2023-04-12T12:53:35;4.90;;;1.88;;
62610;SDS011;48683;48.084;17.272;2023-04-12T12:56:01;4.67;;;1.83;;
62610;SDS011;48683;48.084;17.272;2023-04-12T12:58:27;5.80;;;2.13;;
62610;SDS011;48683;48.084;17.272;2023-04-12T13:00:53;4.83;;;1.70;;
62610;SDS011;48683;48.084;17.272;2023-04-12T13:03:19;5.17;;;1.93;;
62610;SDS011;48683;48.084;17.272;2023-04-12T13:05:45;2.30;;;1.40;;
62610;SDS011;48683;48.084;17.272;2023-04-12T13:08:10;2.77;;;1.40;;
62610;SDS011;48683;48.084;17.272;2023-04-12T13:10:35;5.23;;;1.80;;
62610;SDS011;48683;48.084;17.272;2023-04-12T13:13:01;3.90;;;1.73;;
62610;SDS011;48683;48.084;17.272;2023-04-12T13:15:27;3.73;;;1.70;;
62610;SDS011;48683;48.084;17.272;2023-04-12T13:17:52;1.87;;;1.50;;
62610;SDS011;48683;48.084;17.272;2023-04-12T13:20:18;3.08;;;1.60;;
62610;SDS011;48683;48.084;17.272;2023-04-12T13:22:44;3.93;;;2.10;;
62610;SDS011;48683;48.084;17.272;2023-04-12T13:25:09;3.70;;;1.40;;
62610;SDS011;48683;48.084;17.272;2023-04-12T13:27:35;2.87;;;1.83;;
62610;SDS011;48683;48.084;17.272;2023-04-12T13:30:02;3.42;;;1.73;;
62610;SDS011;48683;48.084;17.272;2023-04-12T13:32:27;5.03;;;1.67;;
62610;SDS011;48683;48.084;17.272;2023-04-12T13:34:53;3.53;;;1.80;;
62610;SDS011;48683;48.084;17.272;2023-04-12T13:37:18;4.20;;;2.07;;
62610;SDS011;48683;48.084;17.272;2023-04-12T13:39:43;3.93;;;1.73;;
62610;SDS011;48683;48.084;17.272;2023-04-12T13:42:09;3.30;;;1.90;;
62610;SDS011;48683;48.084;17.272;2023-04-12T13:44:34;2.80;;;1.80;;
62610;SDS011;48683;48.084;17.272;2023-04-12T13:47:00;5.20;;;2.90;;
62610;SDS011;48683;48.084;17.272;2023-04-12T13:49:26;3.53;;;2.40;;
62610;SDS011;48683;48.084;17.272;2023-04-12T13:51:52;4.27;;;2.40;;
62610;SDS011;48683;48.084;17.272;2023-04-12T13:54:17;3.57;;;2.50;;
62610;SDS011;48683;48.084;17.272;2023-04-12T13:56:43;3.47;;;2.40;;
62610;SDS011;48683;48.084;17.272;2023-04-12T13:59:08;5.90;;;2.30;;
62610;SDS011;48683;48.084;17.272;2023-04-12T14:01:34;3.63;;;2.13;;
62610;SDS011;48683;48.084;17.272;2023-04-12T14:03:59;7.13;;;3.10;;
62610;SDS011;48683;48.084;17.272;2023-04-12T14:06:25;4.30;;;2.47;;
62610;SDS011;48683;48.084;17.272;2023-04-12T14:08:51;5.40;;;2.20;;
62610;SDS011;48683;48.084;17.272;2023-04-12T14:11:16;6.60;;;2.37;;
62610;SDS011;48683;48.084;17.272;2023-04-12T14:13:42;4.57;;;3.17;;
62610;SDS011;48683;48.084;17.272;2023-04-12T14:16:07;4.47;;;2.90;;
62610;SDS011;48683;48.084;17.272;2023-04-12T14:18:33;4.83;;;2.90;;
62610;SDS011;48683;48.084;17.272;2023-04-12T14:20:58;4.13;;;2.87;;
62610;SDS011;48683;48.084;17.272;2023-04-12T14:23:24;5.57;;;3.47;;
62610;SDS011;48683;48.084;17.272;2023-04-12T14:25:50;4.90;;;3.20;;
62610;SDS011;48683;48.084;17.272;2023-04-12T14:28:16;5.73;;;3.10;;
62610;SDS011;48683;48.084;17.272;2023-04-12T14:30:45;4.70;;;3.13;;
62610;SDS011;48683;48.084;17.272;2023-04-12T14:33:14;7.43;;;3.50;;
62610;SDS011;48683;48.084;17.272;2023-04-12T14:35:41;4.38;;;3.72;;
62610;SDS011;48683;48.084;17.272;2023-04-12T14:38:06;5.23;;;3.37;;
62610;SDS011;48683;48.084;17.272;2023-04-12T14:40:32;5.20;;;3.38;;
62610;SDS011;48683;48.084;17.272;2023-04-12T14:42:58;5.17;;;3.30;;
62610;SDS011;48683;48.084;17.272;2023-04-12T14:45:23;5.10;;;3.63;;
62610;SDS011;48683;48.084;17.272;2023-04-12T14:47:51;6.82;;;3.90;;
62610;SDS011;48683;48.084;17.272;2023-04-12T14:50:17;5.17;;;3.00;;
62610;SDS011;48683;48.084;17.272;2023-04-12T14:52:42;4.17;;;2.90;;
62610;SDS011;48683;48.084;17.272;2023-04-12T14:55:08;4.80;;;2.73;;
62610;SDS011;48683;48.084;17.272;2023-04-12T14:57:34;4.93;;;2.60;;
62610;SDS011;48683;48.084;17.272;2023-04-12T15:00:00;4.47;;;2.50;;
62610;SDS011;48683;48.084;17.272;2023-04-12T15:02:25;6.27;;;3.07;;
62610;SDS011;48683;48.084;17.272;2023-04-12T15:04:51;5.10;;;2.77;;
62610;SDS011;48683;48.084;17.272;2023-04-12T15:07:17;7.77;;;3.20;;
62610;SDS011;48683;48.084;17.272;2023-04-12T15:09:42;4.07;;;2.77;;
62610;SDS011;48683;48.084;17.272;2023-04-12T15:12:10;5.95;;;2.67;;